createdAt,value
2023-06-10T00:00:16.653Z,98938.25
2023-06-10T00:01:50.714Z,98940.94
2023-06-10T00:03:24.317Z,98942.63
2023-06-10T00:05:01.599Z,98939.75
2023-06-10T00:06:35.043Z,98942.28
2023-06-10T00:08:08.225Z,98941.09
2023-06-10T00:09:42.418Z,98942.78
2023-06-10T00:11:24.525Z,98945.28
2023-06-10T00:13:01.036Z,98948.69
2023-06-10T00:14:40.314Z,98954.22
2023-06-10T00:16:15.073Z,98953.38
2023-06-10T00:17:52.262Z,98953.53
2023-06-10T00:19:27.168Z,98957.06
2023-06-10T00:21:00.523Z,98967.66
2023-06-10T00:22:33.917Z,98954.06
2023-06-10T00:24:09.236Z,98953.03
2023-06-10T00:25:42.457Z,98952.03
2023-06-10T00:27:15.680Z,98954.53
2023-06-10T00:28:50.010Z,98955.19
2023-06-10T00:30:23.540Z,98957.22
2023-06-10T00:31:57.999Z,98948.31
2023-06-10T00:33:32.256Z,98949.16
2023-06-10T00:35:07.546Z,98953.53
2023-06-10T00:36:41.055Z,98952.88
2023-06-10T00:38:15.710Z,98956.22
2023-06-10T00:39:50.331Z,98948.31
2023-06-10T00:41:30.979Z,98957.22
2023-06-10T00:43:04.049Z,98953.38
2023-06-10T00:44:47.759Z,98953.72
2023-06-10T00:46:22.997Z,98949.50
2023-06-10T00:47:57.543Z,98951.34
2023-06-10T00:49:30.851Z,98949.00
2023-06-10T00:51:09.563Z,98949.00
2023-06-10T00:52:44.765Z,98948.69
2023-06-10T00:54:19.167Z,98950.88
2023-06-10T00:55:52.848Z,98949.84
2023-06-10T00:57:27.057Z,98955.91
2023-06-10T00:59:00.481Z,98959.59
2023-06-10T01:00:35.722Z,98950.03
2023-06-10T01:02:11.245Z,98961.44
2023-06-10T01:03:46.196Z,98960.63
2023-06-10T01:05:23.245Z,98959.78
2023-06-10T01:07:33.669Z,98968.03
2023-06-10T01:09:35.133Z,98961.63
2023-06-10T01:11:20.620Z,98958.94
2023-06-10T01:13:00.828Z,98963.31
2023-06-10T01:14:33.940Z,98958.75
2023-06-10T01:16:07.247Z,98964.97
2023-06-10T01:18:00.529Z,98960.09
2023-06-10T01:19:37.251Z,98959.25
2023-06-10T01:21:20.950Z,98965.31
2023-06-10T01:22:55.974Z,98964.34
2023-06-10T01:24:30.006Z,98958.25
2023-06-10T01:26:11.679Z,98963.31
2023-06-10T01:27:50.806Z,98966.50
2023-06-10T01:29:37.766Z,98973.59
2023-06-10T01:31:49.626Z,98965.66
2023-06-10T01:33:40.467Z,98966.50
2023-06-10T01:35:14.877Z,98965.66
2023-06-10T01:36:50.651Z,98968.34
2023-06-10T01:38:28.375Z,98971.06
2023-06-10T01:40:03.250Z,98966.50
2023-06-10T01:41:37.571Z,98965.53
2023-06-10T01:43:10.848Z,98968.22
2023-06-10T01:44:47.934Z,98969.88
2023-06-10T01:46:21.340Z,98966.19
2023-06-10T01:47:55.416Z,98968.03
2023-06-10T01:49:28.496Z,98970.72
2023-06-10T01:51:02.731Z,98962.66
2023-06-10T01:52:37.946Z,98974.09
2023-06-10T01:54:12.213Z,98974.09
2023-06-10T01:55:45.523Z,98973.41
2023-06-10T01:57:19.497Z,98972.41
2023-06-10T01:58:52.578Z,98974.44
2023-06-10T02:00:25.865Z,98968.69
2023-06-10T02:02:00.336Z,98974.91
2023-06-10T02:03:33.449Z,98971.22
2023-06-10T02:05:07.236Z,98967.03
2023-06-10T02:06:41.001Z,98966.84
2023-06-10T02:08:15.629Z,98957.09
2023-06-10T02:09:48.722Z,98963.50
2023-06-10T02:11:24.734Z,98968.88
2023-06-10T02:12:58.983Z,98971.56
2023-06-10T02:14:38.588Z,98974.25
2023-06-10T02:16:13.359Z,98969.06
2023-06-10T02:17:48.564Z,98974.59
2023-06-10T02:19:26.080Z,98964.81
2023-06-10T02:20:59.852Z,98966.03
2023-06-10T02:22:33.119Z,98966.84
2023-06-10T02:24:07.669Z,98962.31
2023-06-10T02:25:44.648Z,98959.63
2023-06-10T02:27:23.207Z,98967.69
2023-06-10T02:28:57.718Z,98960.63
2023-06-10T02:30:34.074Z,98964.34
2023-06-10T02:32:11.904Z,98965.19
2023-06-10T02:33:51.238Z,98971.41
2023-06-10T02:35:26.352Z,98963.16
2023-06-10T02:37:04.035Z,98972.91
2023-06-10T02:38:41.441Z,98964.81
2023-06-10T02:40:21.085Z,98968.34
2023-06-10T02:41:57.264Z,98971.88
2023-06-10T02:43:31.721Z,98976.44
2023-06-10T02:45:10.127Z,98970.03
2023-06-10T02:46:45.418Z,98982.66
2023-06-10T02:48:28.383Z,98976.44
2023-06-10T02:50:09.325Z,98985.34
2023-06-10T02:51:47.438Z,98980.97
2023-06-10T02:53:20.846Z,98984.88
2023-06-10T02:54:56.831Z,98990.06
2023-06-10T02:56:34.056Z,98991.94
2023-06-10T02:58:07.476Z,98986.53
2023-06-10T02:59:41.489Z,98984.50
2023-06-10T03:01:21.064Z,98997.84
2023-06-10T03:02:54.641Z,98985.34
2023-06-10T03:04:30.281Z,98989.75
2023-06-10T03:06:10.918Z,98993.09
2023-06-10T03:07:47.116Z,98997.66
2023-06-10T03:09:26.919Z,99000.53
2023-06-10T03:11:00.446Z,98995.47
2023-06-10T03:12:35.968Z,99002.53
2023-06-10T03:14:15.079Z,99009.44
2023-06-10T03:15:52.068Z,99000.34
2023-06-10T03:17:29.156Z,98992.25
2023-06-10T03:19:05.504Z,98992.75
2023-06-10T03:20:39.124Z,98990.25
2023-06-10T03:22:25.663Z,98997.63
2023-06-10T03:23:59.643Z,99005.53
2023-06-10T03:25:35.387Z,99002.00
2023-06-10T03:27:11.814Z,99002.66
2023-06-10T03:28:48.810Z,99001.50
2023-06-10T03:30:28.068Z,99005.88
2023-06-10T03:32:07.845Z,99005.03
2023-06-10T03:33:44.340Z,99003.00
2023-06-10T03:35:17.590Z,99010.06
2023-06-10T03:36:51.825Z,99003.84
2023-06-10T03:38:31.725Z,99007.22
2023-06-10T03:40:06.492Z,99000.97
2023-06-10T03:41:40.564Z,98999.31
2023-06-10T03:43:16.427Z,99002.00
2023-06-10T03:44:57.103Z,99003.53
2023-06-10T03:46:40.072Z,99004.38
2023-06-10T03:48:14.633Z,99013.94
2023-06-10T03:49:49.597Z,99011.06
2023-06-10T03:51:28.104Z,99012.75
2023-06-10T03:53:02.182Z,99012.75
2023-06-10T03:54:36.499Z,99010.25
2023-06-10T03:56:10.738Z,99011.75
2023-06-10T03:57:46.690Z,99013.59
2023-06-10T03:59:20.429Z,99020.66
2023-06-10T04:00:56.871Z,99018.84
2023-06-10T04:02:33.555Z,99021.16
2023-06-10T04:04:11.025Z,99022.84
2023-06-10T04:05:46.372Z,99017.28
2023-06-10T04:07:27.350Z,99029.59
2023-06-10T04:09:05.226Z,99018.97
2023-06-10T04:10:40.910Z,99025.03
2023-06-10T04:12:18.399Z,99027.38
2023-06-10T04:14:01.266Z,99029.91
2023-06-10T04:15:34.427Z,99024.69
2023-06-10T04:17:10.869Z,99030.91
2023-06-10T04:18:45.002Z,99028.03
2023-06-10T04:20:20.592Z,99027.06
2023-06-10T04:21:56.861Z,99030.72
2023-06-10T04:23:30.310Z,99035.13
2023-06-10T04:25:05.696Z,99030.72
2023-06-10T04:26:39.191Z,99019.97
2023-06-10T04:28:12.812Z,99025.88
2023-06-10T04:29:49.271Z,99023.81
2023-06-10T04:31:23.148Z,99028.38
2023-06-10T04:32:59.989Z,99026.53
2023-06-10T04:34:34.829Z,99032.44
2023-06-10T04:36:10.034Z,99031.41
2023-06-10T04:37:44.549Z,99034.94
2023-06-10T04:39:21.956Z,99031.88
2023-06-10T04:40:59.512Z,99037.28
2023-06-10T04:42:33.476Z,99033.41
2023-06-10T04:44:10.153Z,99041.97
2023-06-10T04:45:43.824Z,99041.47
2023-06-10T04:47:22.961Z,99042.78
2023-06-10T04:48:57.724Z,99037.72
2023-06-10T04:50:32.694Z,99038.25
2023-06-10T04:52:08.990Z,99045.81
2023-06-10T04:53:45.268Z,99044.66
2023-06-10T04:55:18.552Z,99046.16
2023-06-10T04:56:55.095Z,99045.97
2023-06-10T04:58:30.319Z,99053.03
2023-06-10T05:00:05.058Z,99047.47
2023-06-10T05:01:44.669Z,99053.22
2023-06-10T05:03:22.111Z,99056.09
2023-06-10T05:05:00.338Z,99057.31
2023-06-10T05:06:36.291Z,99051.91
2023-06-10T05:08:12.282Z,99060.66
2023-06-10T05:09:45.517Z,99064.84
2023-06-10T05:11:18.891Z,99058.25
2023-06-10T05:12:52.519Z,99061.63
2023-06-10T05:14:28.703Z,99065.81
2023-06-10T05:16:05.538Z,99055.88
2023-06-10T05:17:46.231Z,99069.38
2023-06-10T05:19:21.481Z,99068.19
2023-06-10T05:20:59.591Z,99070.91
2023-06-10T05:22:32.690Z,99063.78
2023-06-10T05:24:07.600Z,99063.47
2023-06-10T05:25:43.516Z,99072.56
2023-06-10T05:27:19.184Z,99072.56
2023-06-10T05:28:57.475Z,99069.19
2023-06-10T05:30:37.576Z,99069.88
2023-06-10T05:32:15.081Z,99065.47
2023-06-10T05:33:48.331Z,99069.97
2023-06-10T05:35:24.517Z,99062.31
2023-06-10T05:37:00.577Z,99070.16
2023-06-10T05:38:37.263Z,99076.59
2023-06-10T05:40:11.044Z,99075.34
2023-06-10T05:41:46.209Z,99079.63
2023-06-10T05:43:23.797Z,99072.41
2023-06-10T05:45:02.100Z,99072.81
2023-06-10T05:46:38.642Z,99067.66
2023-06-10T05:48:11.833Z,99072.06
2023-06-10T05:49:45.559Z,99082.22
2023-06-10T05:51:23.410Z,99075.25
2023-06-10T05:52:56.844Z,99073.72
2023-06-10T05:54:33.221Z,99080.34
2023-06-10T05:56:10.580Z,99085.59
2023-06-10T05:57:45.710Z,99089.34
2023-06-10T05:59:23.898Z,99077.31
2023-06-10T06:01:00.018Z,99083.16
2023-06-10T06:02:33.381Z,99077.94
2023-06-10T06:04:15.175Z,99072.41
2023-06-10T06:05:51.562Z,99084.34
2023-06-10T06:07:32.528Z,99084.78
2023-06-10T06:09:08.599Z,99083.03
2023-06-10T06:10:41.953Z,99090.06
2023-06-10T06:12:17.586Z,99094.63
2023-06-10T06:13:57.318Z,99081.53
2023-06-10T06:15:32.965Z,99078.25
2023-06-10T06:17:08.114Z,99085.72
2023-06-10T06:18:45.006Z,99069.34
2023-06-10T06:20:29.637Z,99069.53
2023-06-10T06:22:05.045Z,99080.91
2023-06-10T06:23:49.798Z,99073.53
2023-06-10T06:25:25.674Z,99077.56
2023-06-10T06:26:58.950Z,99074.31
2023-06-10T06:28:32.669Z,99084.56
2023-06-10T06:30:07.484Z,99079.78
2023-06-10T06:31:45.657Z,99091.00
2023-06-10T06:33:19.955Z,99076.91
2023-06-10T06:34:56.256Z,99082.22
2023-06-10T06:36:32.697Z,99088.75
2023-06-10T06:38:16.041Z,99093.00
2023-06-10T06:39:49.780Z,99095.34
2023-06-10T06:41:24.839Z,99103.41
2023-06-10T06:43:00.637Z,99095.59
2023-06-10T06:44:39.199Z,99097.25
2023-06-10T06:46:13.781Z,99112.53
2023-06-10T06:47:54.169Z,99102.91
2023-06-10T06:49:28.338Z,99108.41
2023-06-10T06:51:06.933Z,99116.31
2023-06-10T06:52:43.199Z,99113.59
2023-06-10T06:54:17.805Z,99119.66
2023-06-10T06:55:53.452Z,99119.66
2023-06-10T06:57:27.058Z,99113.13
2023-06-10T06:59:01.539Z,99113.47
2023-06-10T07:00:36.283Z,99107.59
2023-06-10T07:02:09.893Z,99108.06
2023-06-10T07:03:46.148Z,99115.28
2023-06-10T07:05:24.967Z,99115.06
2023-06-10T07:06:58.096Z,99118.25
2023-06-10T07:08:32.711Z,99111.44
2023-06-10T07:10:08.183Z,99122.06
2023-06-10T07:11:42.427Z,99134.31
2023-06-10T07:13:16.232Z,99131.31
2023-06-10T07:14:49.700Z,99121.72
2023-06-10T07:16:25.543Z,99124.97
2023-06-10T07:18:04.296Z,99122.97
2023-06-10T07:19:43.049Z,99122.88
2023-06-10T07:21:20.987Z,99125.78
2023-06-10T07:22:55.486Z,99128.88
2023-06-10T07:24:30.670Z,99129.53
2023-06-10T07:26:04.100Z,99133.69
2023-06-10T07:27:50.827Z,99133.25
2023-06-10T07:29:24.237Z,99136.16
2023-06-10T07:30:59.646Z,99128.03
2023-06-10T07:32:38.894Z,99129.53
2023-06-10T07:34:12.118Z,99132.22
2023-06-10T07:35:49.496Z,99132.88
2023-06-10T07:37:31.025Z,99112.44
2023-06-10T07:39:16.704Z,99136.41
2023-06-10T07:40:58.546Z,99134.91
2023-06-10T07:42:42.428Z,99133.44
2023-06-10T07:44:20.834Z,99132.75
2023-06-10T07:46:03.990Z,99139.19
2023-06-10T07:47:49.067Z,99136.41
2023-06-10T07:49:23.119Z,99127.25
2023-06-10T07:50:56.612Z,99138.75
2023-06-10T07:52:29.933Z,99142.94
2023-06-10T07:54:03.233Z,99126.53
2023-06-10T07:55:36.606Z,99132.88
2023-06-10T07:57:09.778Z,99137.47
2023-06-10T07:58:43.006Z,99132.06
2023-06-10T08:00:16.849Z,99135.97
2023-06-10T08:01:50.401Z,99135.66
2023-06-10T08:03:23.865Z,99129.97
2023-06-10T08:04:57.112Z,99133.94
2023-06-10T08:06:30.959Z,99129.56
2023-06-10T08:08:04.443Z,99141.25
2023-06-10T08:09:38.312Z,99137.56
2023-06-10T08:11:15.648Z,99137.72
2023-06-10T08:12:49.835Z,99138.75
2023-06-10T08:14:23.399Z,99141.84
2023-06-10T08:15:56.986Z,99138.56
2023-06-10T08:17:30.405Z,99141.47
2023-06-10T08:19:04.005Z,99146.06
2023-06-10T08:20:38.998Z,99146.69
2023-06-10T08:22:12.200Z,99142.63
2023-06-10T08:23:49.803Z,99146.09
2023-06-10T08:25:26.529Z,99142.53
2023-06-10T08:27:02.593Z,99139.06
2023-06-10T08:28:37.184Z,99141.84
2023-06-10T08:30:11.184Z,99141.78
2023-06-10T08:31:46.043Z,99140.38
2023-06-10T08:33:19.277Z,99140.63
2023-06-10T08:34:53.326Z,99141.75
2023-06-10T08:36:26.899Z,99137.47
2023-06-10T08:38:00.103Z,99139.56
2023-06-10T08:39:34.490Z,99134.41
2023-06-10T08:41:10.763Z,99134.03
2023-06-10T08:43:11.768Z,99134.16
2023-06-10T08:44:47.546Z,99145.50
2023-06-10T08:46:21.829Z,99134.69
2023-06-10T08:47:58.914Z,99132.63
2023-06-10T08:49:39.050Z,99141.84
2023-06-10T08:51:13.248Z,99137.84
2023-06-10T08:52:51.417Z,99135.78
2023-06-10T08:54:31.246Z,99142.69
2023-06-10T08:56:06.734Z,99145.63
2023-06-10T08:57:42.377Z,99140.81
2023-06-10T08:59:17.124Z,99140.19
2023-06-10T09:00:51.771Z,99136.81
2023-06-10T09:02:28.838Z,99139.34
2023-06-10T09:04:04.138Z,99136.22
2023-06-10T09:05:38.169Z,99133.03
2023-06-10T09:07:12.930Z,99128.41
2023-06-10T09:08:46.257Z,99129.41
2023-06-10T09:10:20.284Z,99139.66
2023-06-10T09:11:53.633Z,99130.41
2023-06-10T09:13:27.282Z,99128.94
2023-06-10T09:15:02.970Z,99132.28
2023-06-10T09:16:39.320Z,99126.22
2023-06-10T09:18:13.696Z,99130.66
2023-06-10T09:19:49.172Z,99136.53
2023-06-10T09:21:26.487Z,99132.56
2023-06-10T09:23:02.465Z,99133.22
2023-06-10T09:24:36.179Z,99133.28
2023-06-10T09:26:12.482Z,99142.91
2023-06-10T09:27:53.093Z,99141.84
2023-06-10T09:29:26.734Z,99148.16
2023-06-10T09:31:07.433Z,99143.97
2023-06-10T09:32:41.273Z,99144.75
2023-06-10T09:34:16.480Z,99144.78
2023-06-10T09:35:51.180Z,99136.38
2023-06-10T09:37:25.462Z,99140.56
2023-06-10T09:38:59.324Z,99149.16
2023-06-10T09:40:32.967Z,99147.28
2023-06-10T09:42:20.245Z,99150.63
2023-06-10T09:43:54.432Z,99142.25
2023-06-10T09:45:34.330Z,99153.97
2023-06-10T09:47:07.823Z,99149.56
2023-06-10T09:48:49.017Z,99150.84
2023-06-10T09:50:22.648Z,99143.13
2023-06-10T09:51:56.947Z,99144.78
2023-06-10T09:53:35.665Z,99148.94
2023-06-10T09:55:10.870Z,99148.31
2023-06-10T09:56:44.407Z,99135.31
2023-06-10T09:58:17.728Z,99147.47
2023-06-10T09:59:55.486Z,99142.25
2023-06-10T10:01:29.646Z,99148.13
2023-06-10T10:03:03.410Z,99144.34
2023-06-10T10:04:37.726Z,99143.56
2023-06-10T10:06:14.549Z,99156.06
2023-06-10T10:07:48.486Z,99155.44
2023-06-10T10:09:21.979Z,99152.06
2023-06-10T10:10:58.991Z,99153.28
2023-06-10T10:12:33.683Z,99143.59
2023-06-10T10:14:10.709Z,99150.28
2023-06-10T10:15:46.830Z,99142.75
2023-06-10T10:17:22.502Z,99148.16
2023-06-10T10:19:02.805Z,99153.16
2023-06-10T10:20:46.700Z,99158.78
2023-06-10T10:22:40.725Z,99160.63
2023-06-10T10:24:31.813Z,99169.81
2023-06-10T10:26:15.138Z,99160.75
2023-06-10T10:28:07.518Z,99165.34
2023-06-10T10:29:45.824Z,99158.03
2023-06-10T10:31:26.871Z,99153.88
2023-06-10T10:33:18.169Z,99166.84
2023-06-10T10:35:18.684Z,99160.75
2023-06-10T10:36:56.232Z,99161.72
2023-06-10T10:38:31.664Z,99158.38
2023-06-10T10:40:10.526Z,99163.22
2023-06-10T10:41:45.423Z,99161.78
2023-06-10T10:43:22.249Z,99156.56
2023-06-10T10:44:56.648Z,99162.03
2023-06-10T10:46:31.089Z,99156.59
2023-06-10T10:48:10.725Z,99155.63
2023-06-10T10:49:47.486Z,99156.88
2023-06-10T10:51:21.109Z,99160.63
2023-06-10T10:53:02.604Z,99152.91
2023-06-10T10:54:37.788Z,99151.22
2023-06-10T10:56:18.867Z,99147.84
2023-06-10T10:57:59.576Z,99148.63
2023-06-10T10:59:57.256Z,99153.69
2023-06-10T11:01:46.741Z,99156.78
2023-06-10T11:03:20.414Z,99147.09
2023-06-10T11:04:58.907Z,99148.16
2023-06-10T11:06:32.887Z,99169.31
2023-06-10T11:08:07.151Z,99160.06
2023-06-10T11:10:00.195Z,99144.09
2023-06-10T11:11:52.034Z,99147.69
2023-06-10T11:13:28.535Z,99148.34
2023-06-10T11:15:01.711Z,99148.16
2023-06-10T11:16:43.297Z,99147.31
2023-06-10T11:18:26.044Z,99143.56
2023-06-10T11:20:00.730Z,99146.03
2023-06-10T11:21:58.355Z,99133.91
2023-06-10T11:23:35.272Z,99149.13
2023-06-10T11:25:15.679Z,99143.06
2023-06-10T11:26:49.026Z,99138.03
2023-06-10T11:28:28.982Z,99143.72
2023-06-10T11:30:02.448Z,99140.50
2023-06-10T11:31:52.808Z,99139.69
2023-06-10T11:33:26.366Z,99143.69
2023-06-10T11:34:59.933Z,99136.63
2023-06-10T11:36:44.709Z,99141.00
2023-06-10T11:38:20.594Z,99153.53
2023-06-10T11:39:56.668Z,99141.19
2023-06-10T11:41:31.451Z,99149.53
2023-06-10T11:43:05.977Z,99140.72
2023-06-10T11:44:39.359Z,99143.84
2023-06-10T11:46:13.661Z,99138.81
2023-06-10T11:48:03.159Z,99146.31
2023-06-10T11:49:36.572Z,99152.53
2023-06-10T11:51:10.259Z,99147.06
2023-06-10T11:52:43.706Z,99147.72
2023-06-10T11:54:16.876Z,99143.34
2023-06-10T11:55:52.516Z,99148.31
2023-06-10T11:57:26.003Z,99157.63
2023-06-10T11:59:06.114Z,99152.94
2023-06-10T12:00:53.888Z,99145.06
2023-06-10T12:02:27.122Z,99147.91
2023-06-10T12:04:02.669Z,99158.75
2023-06-10T12:05:36.905Z,99154.38
2023-06-10T12:07:17.873Z,99151.66
2023-06-10T12:08:51.584Z,99152.50
2023-06-10T12:10:27.587Z,99147.91
2023-06-10T12:12:07.171Z,99148.94
2023-06-10T12:13:51.066Z,99132.91
2023-06-10T12:15:27.152Z,99133.59
2023-06-10T12:17:00.707Z,99145.75
2023-06-10T12:18:34.050Z,99141.47
2023-06-10T12:20:27.102Z,99135.25
2023-06-10T12:22:02.408Z,99131.28
2023-06-10T12:23:35.698Z,99126.97
2023-06-10T12:25:11.255Z,99131.81
2023-06-10T12:26:46.226Z,99134.41
2023-06-10T12:28:23.982Z,99122.97
2023-06-10T12:30:02.020Z,99124.09
2023-06-10T12:31:54.973Z,99128.28
2023-06-10T12:33:28.156Z,99122.63
2023-06-10T12:35:06.491Z,99117.66
2023-06-10T12:36:55.359Z,99127.31
2023-06-10T12:38:28.953Z,99121.94
2023-06-10T12:40:11.470Z,99128.81
2023-06-10T12:41:53.408Z,99128.22
2023-06-10T12:43:27.543Z,99123.19
2023-06-10T12:45:01.220Z,99128.22
2023-06-10T12:46:41.145Z,99125.34
2023-06-10T12:48:21.615Z,99118.84
2023-06-10T12:49:55.435Z,99125.97
2023-06-10T12:51:29.177Z,99120.72
2023-06-10T12:53:06.856Z,99125.34
2023-06-10T12:54:44.341Z,99119.66
2023-06-10T12:56:18.064Z,99115.47
2023-06-10T12:57:52.580Z,99106.06
2023-06-10T12:59:27.580Z,99117.94
2023-06-10T13:01:00.869Z,99112.00
2023-06-10T13:02:34.380Z,99118.84
2023-06-10T13:04:07.896Z,99105.69
2023-06-10T13:05:42.054Z,99116.28
2023-06-10T13:07:17.295Z,99115.25
2023-06-10T13:08:50.801Z,99116.75
2023-06-10T13:10:25.885Z,99114.63
2023-06-10T13:12:03.023Z,99117.53
2023-06-10T13:13:38.583Z,99118.78
2023-06-10T13:15:12.431Z,99116.66
2023-06-10T13:16:46.401Z,99114.38
2023-06-10T13:18:25.365Z,99103.63
2023-06-10T13:19:59.473Z,99119.88
2023-06-10T13:21:35.145Z,99117.78
2023-06-10T13:23:10.321Z,99120.69
2023-06-10T13:24:47.060Z,99114.59
2023-06-10T13:26:20.744Z,99123.78
2023-06-10T13:27:55.944Z,99119.44
2023-06-10T13:29:29.216Z,99110.91
2023-06-10T13:31:07.796Z,99127.06
2023-06-10T13:32:42.119Z,99122.03
2023-06-10T13:34:17.709Z,99129.41
2023-06-10T13:35:51.800Z,99115.63
2023-06-10T13:37:26.201Z,99120.84
2023-06-10T13:39:00.120Z,99128.72
2023-06-10T13:40:33.454Z,99119.50
2023-06-10T13:42:11.490Z,99120.34
2023-06-10T13:43:46.556Z,99122.84
2023-06-10T13:45:19.944Z,99116.19
2023-06-10T13:46:53.489Z,99116.41
2023-06-10T13:48:27.049Z,99115.78
2023-06-10T13:50:03.589Z,99119.53
2023-06-10T13:51:40.352Z,99125.56
2023-06-10T13:53:15.743Z,99109.84
2023-06-10T13:54:49.084Z,99119.34
2023-06-10T13:56:23.787Z,99123.59
2023-06-10T13:57:57.286Z,99121.84
2023-06-10T13:59:30.697Z,99129.31
2023-06-10T14:01:04.442Z,99127.00
2023-06-10T14:02:38.710Z,99123.69
2023-06-10T14:04:13.044Z,99111.84
2023-06-10T14:05:46.873Z,99123.50
2023-06-10T14:07:20.585Z,99127.91
2023-06-10T14:08:53.682Z,99121.22
2023-06-10T14:10:27.091Z,99124.00
2023-06-10T14:12:00.429Z,99126.72
2023-06-10T14:13:38.308Z,99133.59
2023-06-10T14:15:14.989Z,99129.88
2023-06-10T14:16:51.363Z,99120.66
2023-06-10T14:18:28.148Z,99124.56
2023-06-10T14:20:01.514Z,99125.03
2023-06-10T14:21:35.272Z,99124.63
2023-06-10T14:23:09.221Z,99122.59
2023-06-10T14:24:42.626Z,99128.94
2023-06-10T14:26:16.647Z,99105.78
2023-06-10T14:27:50.235Z,99116.84
2023-06-10T14:29:23.546Z,99123.50
2023-06-10T14:30:58.326Z,99127.41
2023-06-10T14:32:31.935Z,99123.50
2023-06-10T14:34:05.873Z,99129.28
2023-06-10T14:35:39.137Z,99125.38
2023-06-10T14:37:12.667Z,99128.53
2023-06-10T14:38:46.265Z,99117.94
2023-06-10T14:40:19.610Z,99125.41
2023-06-10T14:41:57.205Z,99120.66
2023-06-10T14:43:30.760Z,99130.66
2023-06-10T14:45:06.336Z,99125.88
2023-06-10T14:46:41.282Z,99127.53
2023-06-10T14:48:14.779Z,99126.69
2023-06-10T14:49:48.312Z,99129.00
2023-06-10T14:51:21.722Z,99121.53
2023-06-10T14:52:55.105Z,99117.16
2023-06-10T14:54:28.707Z,99113.56
2023-06-10T14:56:06.223Z,99114.34
2023-06-10T14:57:40.189Z,99124.69
2023-06-10T14:59:13.442Z,99129.03
2023-06-10T15:00:49.944Z,99112.53
2023-06-10T15:02:24.320Z,99126.66
2023-06-10T15:03:57.769Z,99118.72
2023-06-10T15:05:30.984Z,99112.00
2023-06-10T15:07:05.497Z,99127.84
2023-06-10T15:08:38.723Z,99119.69
2023-06-10T15:10:12.317Z,99125.69
2023-06-10T15:11:45.817Z,99133.91
2023-06-10T15:13:19.121Z,99114.13
2023-06-10T15:14:52.590Z,99120.88
2023-06-10T15:16:26.035Z,99119.09
2023-06-10T15:18:00.455Z,99123.09
2023-06-10T15:19:33.885Z,99111.06
2023-06-10T15:21:07.699Z,99121.13
2023-06-10T15:22:41.352Z,99116.53
2023-06-10T15:24:15.076Z,99123.63
2023-06-10T15:25:48.273Z,99130.25
2023-06-10T15:27:25.273Z,99130.66
2023-06-10T15:28:58.808Z,99133.53
2023-06-10T15:30:32.622Z,99142.84
2023-06-10T15:32:07.220Z,99124.25
2023-06-10T15:33:41.492Z,99133.19
2023-06-10T15:35:19.440Z,99132.97
2023-06-10T15:36:53.208Z,99112.75
2023-06-10T15:38:26.607Z,99128.66
2023-06-10T15:40:04.355Z,99129.47
2023-06-10T15:41:38.115Z,99146.34
2023-06-10T15:43:11.586Z,99124.41
2023-06-10T15:44:44.951Z,99126.31
2023-06-10T15:46:18.557Z,99130.94
2023-06-10T15:47:52.497Z,99134.34
2023-06-10T15:49:30.364Z,99125.19
2023-06-10T15:51:07.696Z,99133.53
2023-06-10T15:52:44.254Z,99122.53
2023-06-10T15:54:21.376Z,99124.19
2023-06-10T15:55:58.350Z,99122.75
2023-06-10T15:57:37.655Z,99119.44
2023-06-10T15:59:17.100Z,99140.94
2023-06-10T16:00:50.723Z,99130.34
2023-06-10T16:02:24.179Z,99134.97
2023-06-10T16:03:58.132Z,99133.75
2023-06-10T16:05:33.284Z,99131.84
2023-06-10T16:07:08.658Z,99139.38
2023-06-10T16:08:45.123Z,99138.34
2023-06-10T16:10:19.004Z,99142.09
2023-06-10T16:11:53.829Z,99145.88
2023-06-10T16:13:29.852Z,99133.56
2023-06-10T16:15:06.043Z,99148.97
2023-06-10T16:16:42.894Z,99145.44
2023-06-10T16:18:21.151Z,99156.03
2023-06-10T16:19:55.997Z,99137.03
2023-06-10T16:21:37.916Z,99162.03
2023-06-10T16:23:11.307Z,99161.38
2023-06-10T16:24:46.492Z,99147.63
2023-06-10T16:26:22.285Z,99156.59
2023-06-10T16:27:55.658Z,99160.78
2023-06-10T16:29:32.289Z,99159.50
2023-06-10T16:31:05.652Z,99156.13
2023-06-10T16:32:40.992Z,99167.59
2023-06-10T16:34:17.583Z,99163.16
2023-06-10T16:35:53.682Z,99154.28
2023-06-10T16:37:27.852Z,99161.28
2023-06-10T16:39:09.769Z,99173.22
2023-06-10T16:40:43.290Z,99162.31
2023-06-10T16:42:16.805Z,99158.09
2023-06-10T16:43:50.849Z,99169.41
2023-06-10T16:45:24.102Z,99170.03
2023-06-10T16:47:01.102Z,99177.34
2023-06-10T16:48:35.344Z,99171.56
2023-06-10T16:50:11.960Z,99174.91
2023-06-10T16:51:46.630Z,99179.69
2023-06-10T16:53:21.358Z,99190.25
2023-06-10T16:54:54.579Z,99192.31
2023-06-10T16:56:31.455Z,99199.44
2023-06-10T16:58:06.097Z,99188.75
2023-06-10T16:59:42.875Z,99196.88
2023-06-10T17:01:22.040Z,99194.38
2023-06-10T17:02:56.991Z,99201.03
2023-06-10T17:04:31.348Z,99199.72
2023-06-10T17:06:04.971Z,99194.41
2023-06-10T17:07:41.073Z,99186.03
2023-06-10T17:09:14.787Z,99192.22
2023-06-10T17:10:49.263Z,99193.16
2023-06-10T17:12:25.857Z,99191.38
2023-06-10T17:14:02.514Z,99200.06
2023-06-10T17:15:44.791Z,99204.09
2023-06-10T17:17:18.147Z,99212.16
2023-06-10T17:18:54.195Z,99199.72
2023-06-10T17:20:31.274Z,99204.88
2023-06-10T17:22:05.976Z,99205.81
2023-06-10T17:23:42.150Z,99209.06
2023-06-10T17:25:15.462Z,99213.88
2023-06-10T17:26:50.034Z,99211.72
2023-06-10T17:28:24.631Z,99222.06
2023-06-10T17:30:01.651Z,99224.50
2023-06-10T17:31:38.996Z,99217.97
2023-06-10T17:33:12.577Z,99224.28
2023-06-10T17:34:52.329Z,99225.00
2023-06-10T17:36:28.414Z,99234.03
2023-06-10T17:38:06.678Z,99230.19
2023-06-10T17:39:40.992Z,99236.81
2023-06-10T17:41:14.315Z,99240.91
2023-06-10T17:42:52.490Z,99234.72
2023-06-10T17:44:29.976Z,99237.78
2023-06-10T17:46:04.222Z,99239.81
2023-06-10T17:47:39.368Z,99236.47
2023-06-10T17:49:13.035Z,99240.56
2023-06-10T17:50:47.009Z,99250.69
2023-06-10T17:52:21.224Z,99247.53
2023-06-10T17:53:54.714Z,99241.13
2023-06-10T17:55:28.192Z,99244.00
2023-06-10T17:57:01.608Z,99244.00
2023-06-10T17:58:34.825Z,99247.03
2023-06-10T18:00:10.103Z,99254.00
2023-06-10T18:01:43.495Z,99241.31
2023-06-10T18:03:23.102Z,99248.97
2023-06-10T18:04:57.413Z,99250.69
2023-06-10T18:06:37.767Z,99254.59
2023-06-10T18:08:14.408Z,99242.28
2023-06-10T18:09:48.817Z,99247.66
2023-06-10T18:11:26.897Z,99245.16
2023-06-10T18:13:00.679Z,99241.81
2023-06-10T18:14:36.957Z,99251.75
2023-06-10T18:16:10.924Z,99260.03
2023-06-10T18:17:44.886Z,99262.06
2023-06-10T18:19:19.495Z,99258.06
2023-06-10T18:21:01.192Z,99264.28
2023-06-10T18:22:37.062Z,99266.50
2023-06-10T18:24:23.955Z,99263.13
2023-06-10T18:25:59.478Z,99270.56
2023-06-10T18:27:37.103Z,99263.19
2023-06-10T18:29:11.672Z,99265.22
2023-06-10T18:30:51.048Z,99278.72
2023-06-10T18:32:26.762Z,99273.31
2023-06-10T18:34:04.472Z,99267.03
2023-06-10T18:35:43.964Z,99273.47
2023-06-10T18:37:18.053Z,99265.56
2023-06-10T18:38:54.652Z,99265.56
2023-06-10T18:40:31.764Z,99264.06
2023-06-10T18:42:11.897Z,99272.66
2023-06-10T18:43:45.489Z,99269.63
2023-06-10T18:45:23.548Z,99274.72
2023-06-10T18:46:59.348Z,99277.75
2023-06-10T18:48:33.608Z,99289.25
2023-06-10T18:50:11.117Z,99280.47
2023-06-10T18:51:44.526Z,99281.63